KDEH/DEH METAR and TAF weather

Enter ICAO airport designator
Station Type Date Time Source
KDEH METAR 2020/09/18 19:35 UTC NOAA

KDEH 181935Z AUTO VRB03G10KT 10SM 15/04 A3035 RMK AO2


Station Type Date Time Source
KDEH Decoded METAR 2020/09/18 19:35 UTC NOAA

Decorah, IA, United States (KDEH) 43-17N 091-44W
Sep 18, 2020 - 03:35 PM EDT / 2020.09.18 1935 UTC
Wind: Variable at 3 MPH (3 KT) gusting to 12 MPH (10 KT):0
Visibility: 10 mile(s):0
Temperature: 59 F (15 C)
Dew Point: 39 F (4 C)
Relative Humidity: 47%
Pressure (altimeter): 30.35 in. Hg (1027 hPa)
ob: KDEH 181935Z AUTO VRB03G10KT 10SM 15/04 A3035 RMK AO2
cycle: 19

Station Type Date Time Source
KDEH TAF UTC NOAA

Error!

Example: see airport list